Time;durP1;ratioP1;P1;durP2;ratioP2;P2;SDS_P1;SDS_P2;PMS_P1;PMS_P2;Temp;Humidity;BMP_temperature;BMP_pressure;BME280_temperature;BME280_humidity;BME280_pressure;Samples;Min_cycle;Max_cycle;Signal;HPM_P1;HPM_P2
2022/11/07 00:01:48;;;;;;;6.82;4.22;;;;;;;8.10;77.49;98250.50;5022458;28;20033;-83
2022/11/07 00:04:13;;;;;;;6.28;4.13;;;;;;;7.98;77.32;98218.72;5019523;28;20123;-83
2022/11/07 00:06:39;;;;;;;9.32;3.83;;;;;;;7.93;77.45;98225.84;5005512;28;20700;-83
2022/11/07 00:09:04;;;;;;;6.10;3.88;;;;;;;8.07;77.81;98259.78;4987544;28;20026;-83
2022/11/07 00:11:30;;;;;;;6.78;4.32;;;;;;;8.14;77.44;98263.06;4999827;28;20409;-83
2022/11/07 00:13:55;;;;;;;6.63;4.60;;;;;;;8.04;78.29;98259.44;5003581;28;20079;-83
2022/11/07 00:16:21;;;;;;;8.25;4.40;;;;;;;8.04;77.87;98254.94;5017616;28;20041;-83
2022/11/07 00:18:47;;;;;;;8.05;4.53;;;;;;;8.29;77.63;98268.59;5021220;28;20027;-83
2022/11/07 00:21:12;;;;;;;6.78;4.80;;;;;;;8.07;77.21;98235.84;5007930;28;20434;-83
2022/11/07 00:23:42;;;;;;;8.93;5.20;;;;;;;8.25;77.06;98270.13;5019665;28;20056;-83
2022/11/07 00:26:10;;;;;;;7.18;4.35;;;;;;;8.36;77.01;98271.06;5000482;28;20565;-82
2022/11/07 00:28:37;;;;;;;7.72;3.97;;;;;;;8.41;76.93;98291.59;5006507;28;20119;-83
2022/11/07 00:31:03;;;;;;;5.05;3.95;;;;;;;8.39;76.84;98286.50;5004006;28;20060;-84
2022/11/07 00:33:29;;;;;;;6.82;4.97;;;;;;;8.07;77.16;98264.28;4996975;28;20033;-83
2022/11/07 00:35:54;;;;;;;7.38;4.75;;;;;;;8.14;77.51;98276.34;5026701;28;20068;-83
2022/11/07 00:38:20;;;;;;;7.50;4.40;;;;;;;8.08;77.36;98272.00;5010927;28;20025;-82
2022/11/07 00:40:56;;;;;;;5.45;4.30;;;;;;;8.22;76.66;98296.38;5023133;28;20116;-83
2022/11/07 00:43:22;;;;;;;7.78;4.60;;;;;;;8.00;77.41;98271.63;5011667;28;20065;-83
2022/11/07 00:45:48;;;;;;;7.78;5.53;;;;;;;8.13;78.11;98293.34;4997288;28;20060;-83
2022/11/07 00:48:13;;;;;;;6.68;4.45;;;;;;;8.15;77.98;98295.72;5025289;28;20033;-83
2022/11/07 00:50:39;;;;;;;8.85;5.53;;;;;;;8.23;77.84;98313.94;5027732;28;20044;-83
2022/11/07 00:53:05;;;;;;;6.68;4.50;;;;;;;8.32;77.58;98309.84;5009855;28;20048;-82
2022/11/07 00:55:33;;;;;;;6.05;5.38;;;;;;;8.19;78.30;98295.00;4993031;28;20029;-83
2022/11/07 00:57:59;;;;;;;7.53;4.43;;;;;;;8.20;78.69;98314.41;5022482;28;20053;-83
2022/11/07 01:00:25;;;;;;;8.40;4.60;;;;;;;8.34;77.49;98302.41;5026784;28;20474;-83
2022/11/07 01:05:34;;;;;;;5.05;4.22;;;;;;;8.29;78.24;98319.09;5022005;28;20049;-82
2022/11/07 01:07:59;;;;;;;5.15;4.10;;;;;;;8.32;78.11;98312.50;5001373;28;22171;-83
2022/11/07 01:10:25;;;;;;;7.25;4.97;;;;;;;8.26;78.56;98310.81;5019442;28;20516;-83
2022/11/07 01:12:50;;;;;;;7.07;5.50;;;;;;;8.19;78.24;98318.13;5000154;28;20041;-82
2022/11/07 01:15:15;;;;;;;7.28;4.43;;;;;;;8.12;78.75;98299.72;5001620;28;20091;-83
2022/11/07 01:17:41;;;;;;;8.88;5.07;;;;;;;8.19;78.56;98328.78;5001469;28;20443;-83
2022/11/07 01:20:07;;;;;;;10.27;4.35;;;;;;;8.27;77.87;98326.53;5004817;28;20034;-82
2022/11/07 01:22:32;;;;;;;7.97;4.90;;;;;;;8.17;78.26;98313.06;5003281;28;20034;-82
2022/11/07 01:24:57;;;;;;;6.20;5.18;;;;;;;8.06;78.44;98305.22;5007042;28;20481;-83
2022/11/07 01:27:23;;;;;;;7.47;4.78;;;;;;;8.21;78.91;98324.78;4975690;28;20061;-82
2022/11/07 01:29:48;;;;;;;6.07;4.53;;;;;;;8.32;77.80;98331.09;5024345;28;20041;-83
2022/11/07 01:32:14;;;;;;;7.82;5.00;;;;;;;8.29;78.06;98326.28;5022752;28;20071;-83
2022/11/07 01:34:39;;;;;;;6.00;4.57;;;;;;;8.45;78.47;98337.91;5023857;28;20113;-83
2022/11/07 01:37:04;;;;;;;6.70;4.53;;;;;;;8.46;78.44;98336.84;5004386;28;20041;-83
2022/11/07 01:39:30;;;;;;;6.13;4.00;;;;;;;8.26;77.88;98298.31;5011078;28;20615;-84
2022/11/07 01:41:55;;;;;;;6.15;4.78;;;;;;;8.44;78.67;98345.06;5026749;28;20025;-83
2022/11/07 01:44:20;;;;;;;6.05;4.85;;;;;;;8.46;78.93;98339.50;5011396;28;20049;-83
2022/11/07 01:46:47;;;;;;;4.57;4.15;;;;;;;8.46;78.35;98332.34;5004632;28;20037;-83
2022/11/07 01:49:21;;;;;;;7.20;4.47;;;;;;;8.55;78.04;98338.03;4992501;28;20053;-84
2022/11/07 01:51:49;;;;;;;5.20;3.78;;;;;;;8.47;78.38;98336.63;5028904;28;20029;-83
2022/11/07 01:54:18;;;;;;;6.85;4.00;;;;;;;8.32;79.11;98309.03;5029040;28;20025;-83
2022/11/07 01:56:44;;;;;;;7.45;4.05;;;;;;;8.49;78.01;98304.44;5030188;28;20021;-84
2022/11/07 01:59:13;;;;;;;12.75;4.47;;;;;;;8.45;78.06;98309.47;5028996;28;20028;-83
2022/11/07 02:01:39;;;;;;;8.98;5.20;;;;;;;8.46;78.99;98319.03;5010238;28;20052;-83
2022/11/07 02:04:05;;;;;;;6.93;4.20;;;;;;;8.52;78.83;98319.91;5028440;28;20366;-83
2022/11/07 02:06:59;;;;;;;8.77;4.18;;;;;;;8.29;79.12;98303.16;5009069;28;20041;-83
2022/11/07 02:09:25;;;;;;;6.50;4.45;;;;;;;7.98;79.49;98281.69;5027466;28;20087;-84
2022/11/07 02:11:50;;;;;;;5.45;3.72;;;;;;;8.29;79.08;98283.72;5011686;28;20033;-84
2022/11/07 02:14:17;;;;;;;6.65;4.28;;;;;;;8.22;78.59;98299.03;5010623;28;20064;-84
2022/11/07 02:16:43;;;;;;;5.50;3.85;;;;;;;8.21;78.44;98306.19;5013202;28;20029;-83
2022/11/07 02:19:36;;;;;;;4.05;3.50;;;;;;;8.30;79.14;98325.19;4983298;28;20041;-83
2022/11/07 02:22:22;;;;;;;5.18;4.05;;;;;;;8.14;78.49;98323.38;5021775;28;20044;-84
2022/11/07 02:24:52;;;;;;;4.97;3.50;;;;;;;8.26;79.17;98324.09;5019181;28;20038;-84
2022/11/07 02:27:20;;;;;;;5.97;3.95;;;;;;;8.17;78.69;98306.91;5021631;28;20374;-83
2022/11/07 02:29:48;;;;;;;5.78;3.53;;;;;;;8.18;78.85;98298.72;5022247;28;20032;-83
2022/11/07 02:32:14;;;;;;;7.25;4.20;;;;;;;8.21;78.44;98297.44;5007999;28;20428;-83
2022/11/07 02:34:39;;;;;;;5.95;4.45;;;;;;;8.05;79.65;98314.22;5004787;28;20041;-82
2022/11/07 02:37:32;;;;;;;8.55;3.83;;;;;;;8.00;79.12;98309.63;4984258;28;20044;-82
2022/11/07 02:39:59;;;;;;;5.03;3.85;;;;;;;8.10;79.18;98314.28;5015418;28;20033;-82
2022/11/07 02:42:42;;;;;;;6.43;3.92;;;;;;;8.06;79.14;98321.16;4999621;28;20037;-83
2022/11/07 02:45:18;;;;;;;5.80;3.90;;;;;;;8.14;78.67;98307.44;5020908;28;20037;-83
2022/11/07 02:47:44;;;;;;;6.65;3.85;;;;;;;8.30;79.12;98327.88;5021977;28;20078;-83
2022/11/07 02:50:12;;;;;;;4.72;3.88;;;;;;;8.11;78.75;98316.69;5022946;28;20449;-83
2022/11/07 02:52:38;;;;;;;4.78;3.50;;;;;;;8.00;79.19;98306.97;5020736;28;20041;-82
2022/11/07 02:55:05;;;;;;;5.50;3.40;;;;;;;8.11;80.23;98324.66;5005909;28;20037;-83
2022/11/07 02:57:31;;;;;;;5.50;3.60;;;;;;;8.18;79.61;98325.31;5002723;28;20088;-83
2022/11/07 02:59:57;;;;;;;5.18;2.88;;;;;;;8.01;79.72;98321.06;5019499;28;20414;-83
2022/11/07 03:02:23;;;;;;;4.80;3.65;;;;;;;8.12;79.85;98317.50;4989038;28;20048;-83
2022/11/07 03:04:49;;;;;;;4.43;3.13;;;;;;;8.23;79.78;98329.88;5020231;28;20064;-83
2022/11/07 03:07:14;;;;;;;3.35;2.95;;;;;;;8.05;79.84;98316.88;4994031;28;20110;-83
2022/11/07 03:09:40;;;;;;;7.13;4.30;;;;;;;7.87;80.21;98306.50;5004406;28;20034;-83
2022/11/07 03:12:05;;;;;;;6.97;3.33;;;;;;;8.05;80.34;98324.84;4969735;28;20033;-83
2022/11/07 03:14:31;;;;;;;3.78;3.38;;;;;;;8.24;79.44;98315.53;5006325;28;20210;-82
2022/11/07 03:16:56;;;;;;;5.10;3.13;;;;;;;8.27;78.99;98325.72;5023202;28;20028;-83
2022/11/07 03:19:21;;;;;;;4.35;2.70;;;;;;;8.20;79.69;98315.22;5005658;28;20069;-83
2022/11/07 03:21:49;;;;;;;5.53;3.53;;;;;;;7.94;80.00;98318.59;5007479;28;20444;-83
2022/11/07 03:24:14;;;;;;;4.32;2.78;;;;;;;8.07;80.31;98333.38;4988707;28;20409;-82
2022/11/07 03:26:39;;;;;;;5.20;3.55;;;;;;;8.11;80.77;98339.81;5024011;28;20069;-82
2022/11/07 03:29:05;;;;;;;4.85;2.80;;;;;;;8.19;79.94;98334.88;5006550;28;21841;-83
2022/11/07 03:31:30;;;;;;;4.78;2.83;;;;;;;8.09;80.33;98320.66;5002188;28;20133;-83
2022/11/07 03:33:56;;;;;;;5.63;3.20;;;;;;;8.06;80.62;98324.59;4987523;28;20043;-83
2022/11/07 03:36:21;;;;;;;4.75;3.17;;;;;;;8.17;80.52;98323.69;4991086;28;20499;-82
2022/11/07 03:38:47;;;;;;;5.90;3.17;;;;;;;8.39;80.42;98338.91;4988461;28;20025;-83
2022/11/07 03:41:16;;;;;;;5.82;3.03;;;;;;;8.12;80.64;98309.53;5017830;28;20041;-83
2022/11/07 03:43:44;;;;;;;3.58;3.03;;;;;;;8.30;81.31;98325.19;4987569;28;20095;-83
2022/11/07 03:46:09;;;;;;;3.45;2.83;;;;;;;8.47;79.84;98330.47;5007637;28;20026;-83
2022/11/07 03:48:35;;;;;;;5.57;2.72;;;;;;;8.11;81.60;98331.84;5024956;28;20140;-83
2022/11/07 03:51:00;;;;;;;5.25;2.95;;;;;;;8.10;81.80;98331.03;4992481;28;20115;-83
2022/11/07 03:53:25;;;;;;;3.97;2.83;;;;;;;8.26;82.00;98335.53;5008233;28;20037;-83
2022/11/07 03:55:53;;;;;;;4.50;3.05;;;;;;;8.15;82.27;98340.91;5029110;28;20025;-83
2022/11/07 03:58:18;;;;;;;4.72;2.70;;;;;;;8.48;80.24;98334.75;5008760;28;20397;-83
2022/11/07 04:00:44;;;;;;;8.43;2.80;;;;;;;8.22;81.43;98333.59;5028671;28;20030;-83
2022/11/07 04:03:09;;;;;;;5.22;2.80;;;;;;;8.30;81.11;98343.81;4993555;28;20037;-83
2022/11/07 04:05:35;;;;;;;4.00;3.15;;;;;;;8.08;81.32;98303.09;5026616;28;20048;-83
2022/11/07 04:08:00;;;;;;;3.65;2.30;;;;;;;8.16;81.16;98313.31;4986862;28;20034;-83
2022/11/07 04:10:25;;;;;;;3.78;3.00;;;;;;;8.30;80.90;98322.53;5026981;28;20091;-83
2022/11/07 04:18:21;;;;;;;;;;;;;;;8.34;81.34;98338.81;5026047;28;20128;-82
2022/11/07 04:20:47;;;;;;;3.63;2.87;;;;;;;8.29;80.61;98336.91;5023567;28;20336;-82
2022/11/07 04:23:12;;;;;;;4.35;2.80;;;;;;;8.27;81.22;98345.13;4993037;28;20061;-83
2022/11/07 04:28:21;;;;;;;3.53;2.63;;;;;;;8.17;82.26;98352.13;5009731;28;20094;-83
2022/11/07 04:30:47;;;;;;;4.25;2.40;;;;;;;8.35;81.22;98367.00;5012502;28;20033;-83
2022/11/07 04:33:12;;;;;;;3.53;2.72;;;;;;;8.17;81.71;98346.78;5019114;28;20038;-82
2022/11/07 04:35:37;;;;;;;4.40;2.72;;;;;;;8.32;81.41;98356.88;5009119;28;20033;-83
2022/11/07 04:38:03;;;;;;;4.90;3.05;;;;;;;8.11;82.64;98359.22;5008091;28;20045;-83
2022/11/07 04:40:29;;;;;;;5.05;3.17;;;;;;;8.26;82.07;98359.47;5031655;28;20025;-83
2022/11/07 04:42:54;;;;;;;3.60;2.67;;;;;;;8.07;82.51;98320.09;5028818;28;20052;-83
2022/11/07 04:45:20;;;;;;;8.50;3.35;;;;;;;8.39;82.32;98368.16;5024320;28;20398;-83
2022/11/07 04:47:46;;;;;;;7.22;3.28;;;;;;;8.37;82.69;98370.22;5024538;28;20528;-82
2022/11/07 04:50:14;;;;;;;3.28;2.97;;;;;;;8.22;82.44;98355.66;5005577;28;20022;-82
2022/11/07 04:52:39;;;;;;;5.05;3.17;;;;;;;8.30;82.70;98370.41;5023210;28;20401;-82
2022/11/07 04:55:07;;;;;;;7.22;2.80;;;;;;;8.18;83.07;98346.56;5007829;28;20060;-84
2022/11/07 04:57:32;;;;;;;4.13;2.60;;;;;;;8.05;83.35;98362.06;5007613;28;20026;-83
2022/11/07 04:59:57;;;;;;;4.20;2.85;;;;;;;8.10;82.85;98351.50;5027359;28;20033;-83
2022/11/07 05:02:24;;;;;;;3.47;2.60;;;;;;;8.33;82.48;98369.91;5007844;28;20134;-84
2022/11/07 05:04:50;;;;;;;4.10;3.35;;;;;;;8.01;82.86;98334.34;4998459;28;20212;-84
2022/11/07 05:07:17;;;;;;;8.15;3.13;;;;;;;8.08;83.33;98354.38;5017954;28;20425;-84
2022/11/07 05:09:45;;;;;;;8.93;3.22;;;;;;;8.02;83.38;98362.53;5012235;28;20022;-83
2022/11/07 05:12:10;;;;;;;4.85;2.92;;;;;;;8.24;83.58;98366.03;5027675;28;20496;-83
2022/11/07 05:14:35;;;;;;;7.97;3.83;;;;;;;8.12;83.04;98344.91;4994707;28;20026;-83
2022/11/07 05:17:02;;;;;;;5.90;3.05;;;;;;;8.28;82.67;98365.34;5006905;28;20410;-84
2022/11/07 05:19:27;;;;;;;5.47;3.50;;;;;;;8.05;83.60;98343.44;5013723;28;20095;-84
2022/11/07 05:24:37;;;;;;;4.28;2.65;;;;;;;8.27;83.92;98382.34;5030459;28;20060;-84
2022/11/07 05:27:03;;;;;;;3.63;3.33;;;;;;;8.41;83.25;98388.09;5004117;28;20041;-83
2022/11/07 05:29:28;;;;;;;9.18;4.78;;;;;;;8.28;83.38;98364.53;4994479;28;20061;-83
2022/11/07 05:31:53;;;;;;;4.53;3.25;;;;;;;8.24;83.78;98360.72;5031655;28;20037;-83
2022/11/07 05:34:19;;;;;;;6.25;3.25;;;;;;;8.38;83.63;98364.69;4994130;28;20057;-82
2022/11/07 05:36:44;;;;;;;8.23;3.05;;;;;;;8.32;83.99;98368.34;4995411;28;20103;-82
2022/11/07 05:39:10;;;;;;;4.82;3.45;;;;;;;8.49;83.43;98365.63;5006610;28;20033;-83
2022/11/07 05:41:35;;;;;;;8.85;3.45;;;;;;;8.52;84.09;98371.22;5010727;28;20398;-83
2022/11/07 05:44:01;;;;;;;6.55;2.92;;;;;;;8.53;83.60;98369.38;5028230;28;20132;-83
2022/11/07 05:46:26;;;;;;;4.30;2.70;;;;;;;8.45;83.70;98357.34;4996775;28;20061;-83
2022/11/07 05:48:51;;;;;;;5.82;2.83;;;;;;;8.49;84.28;98358.44;5032090;28;20052;-83
2022/11/07 05:51:17;;;;;;;7.20;3.60;;;;;;;8.55;83.41;98370.75;5031065;28;20038;-83
2022/11/07 05:53:43;;;;;;;5.00;2.72;;;;;;;8.26;84.72;98369.28;5030859;28;20040;-83
2022/11/07 05:56:08;;;;;;;6.00;2.92;;;;;;;8.50;84.02;98376.00;4996495;28;20033;-83
2022/11/07 05:58:33;;;;;;;8.13;3.92;;;;;;;8.42;84.32;98368.47;4996317;28;20030;-83
2022/11/07 06:01:01;;;;;;;6.20;3.20;;;;;;;8.43;84.34;98363.94;5009847;28;20594;-83
2022/11/07 06:03:26;;;;;;;10.13;3.63;;;;;;;8.40;85.20;98369.75;4999206;28;20041;-83
2022/11/07 06:05:51;;;;;;;8.52;3.13;;;;;;;8.45;83.76;98365.31;5031512;28;20045;-83
2022/11/07 06:08:17;;;;;;;7.75;3.40;;;;;;;8.40;83.58;98348.47;4983886;28;20083;-83
2022/11/07 06:10:42;;;;;;;5.07;3.22;;;;;;;8.42;84.25;98389.72;4998196;28;20033;-83
2022/11/07 06:13:13;;;;;;;5.97;3.65;;;;;;;8.46;84.12;98385.53;5029020;28;20026;-83
2022/11/07 06:15:39;;;;;;;8.43;3.88;;;;;;;8.45;83.83;98377.81;5008967;28;20038;-83
2022/11/07 06:18:07;;;;;;;9.80;3.20;;;;;;;8.27;84.93;98373.56;5029555;28;20036;-83
2022/11/07 06:20:33;;;;;;;7.53;3.30;;;;;;;8.36;84.79;98372.09;5025812;28;20056;-83
2022/11/07 06:23:04;;;;;;;9.98;3.33;;;;;;;8.34;84.35;98349.47;5030093;28;20025;-83
2022/11/07 06:25:30;;;;;;;7.72;3.53;;;;;;;8.44;83.82;98390.28;5029002;28;20037;-83
2022/11/07 06:28:03;;;;;;;8.02;4.13;;;;;;;8.25;85.98;98399.56;5013964;28;20385;-83
2022/11/07 06:30:29;;;;;;;7.30;4.15;;;;;;;8.33;84.20;98391.19;5010996;28;20071;-83
2022/11/07 06:32:58;;;;;;;7.18;3.65;;;;;;;8.44;84.73;98403.59;5028009;28;20124;-83
2022/11/07 06:35:23;;;;;;;10.55;3.63;;;;;;;8.47;84.20;98405.75;5023762;28;20037;-82
2022/11/07 06:37:49;;;;;;;7.40;3.88;;;;;;;8.27;85.92;98400.16;5026510;28;20367;-83
2022/11/07 06:40:14;;;;;;;7.15;3.42;;;;;;;8.04;86.66;98387.00;5011495;28;20072;-83
2022/11/07 06:42:40;;;;;;;10.68;3.90;;;;;;;8.39;84.95;98408.81;5016460;28;20548;-83
2022/11/07 06:45:06;;;;;;;11.60;4.03;;;;;;;8.26;85.93;98399.34;5026575;28;20059;-82
2022/11/07 06:47:31;;;;;;;10.15;4.10;;;;;;;8.29;85.26;98398.88;5011490;28;20593;-83
2022/11/07 06:49:56;;;;;;;7.00;4.03;;;;;;;8.37;85.73;98418.09;5006302;28;20034;-82
2022/11/07 06:52:22;;;;;;;8.63;3.75;;;;;;;8.37;85.09;98421.56;5030887;28;20441;-82
2022/11/07 06:54:47;;;;;;;7.82;3.22;;;;;;;8.34;85.68;98422.06;5025987;28;20033;-83
2022/11/07 06:57:12;;;;;;;8.98;4.10;;;;;;;8.32;85.78;98418.84;5012182;28;20735;-83
2022/11/07 06:59:38;;;;;;;11.32;3.83;;;;;;;8.45;85.19;98425.66;5029353;28;20037;-83
2022/11/07 07:02:03;;;;;;;8.48;4.30;;;;;;;8.48;85.18;98435.81;5030352;28;20079;-83
2022/11/07 07:04:28;;;;;;;6.45;3.00;;;;;;;8.46;84.26;98428.06;5026587;28;20033;-83
2022/11/07 07:06:54;;;;;;;8.25;3.35;;;;;;;8.41;85.09;98429.88;5035804;28;20406;-83
2022/11/07 07:09:19;;;;;;;7.78;3.72;;;;;;;8.43;84.68;98444.50;4990262;28;20034;-83
2022/11/07 07:11:44;;;;;;;6.45;3.75;;;;;;;8.43;84.55;98428.56;5028054;28;20033;-83
2022/11/07 07:14:11;;;;;;;9.02;3.47;;;;;;;8.55;84.86;98439.09;5008325;28;20060;-83
2022/11/07 07:16:36;;;;;;;8.38;4.10;;;;;;;8.48;84.44;98428.63;5030078;28;20466;-83
2022/11/07 07:19:02;;;;;;;8.77;3.83;;;;;;;8.39;86.05;98438.06;5008834;28;20029;-83
2022/11/07 07:21:28;;;;;;;6.65;3.60;;;;;;;8.53;85.63;98452.66;5014380;28;20041;-83
2022/11/07 07:23:53;;;;;;;10.05;4.13;;;;;;;8.56;85.17;98444.16;5014813;28;20029;-83
2022/11/07 07:26:19;;;;;;;7.43;3.83;;;;;;;8.51;85.16;98437.97;5032270;28;20034;-83
2022/11/07 07:28:44;;;;;;;9.48;4.35;;;;;;;8.53;84.76;98426.06;5029605;28;20064;-83
2022/11/07 07:31:13;;;;;;;11.00;4.13;;;;;;;8.55;85.58;98455.06;5031423;28;20112;-83
2022/11/07 07:33:39;;;;;;;7.03;3.13;;;;;;;8.55;85.04;98442.56;5026442;28;20110;-83
2022/11/07 07:36:05;;;;;;;11.48;4.53;;;;;;;8.66;83.65;98438.19;5027340;28;20032;-83
2022/11/07 07:38:30;;;;;;;8.63;4.05;;;;;;;8.66;84.17;98465.59;5013578;28;20037;-83
2022/11/07 07:40:57;;;;;;;8.15;3.83;;;;;;;8.49;85.54;98437.41;5012050;28;20143;-83
2022/11/07 07:43:23;;;;;;;10.88;4.07;;;;;;;8.59;84.92;98454.31;5012083;28;20033;-83
2022/11/07 07:45:48;;;;;;;6.47;3.40;;;;;;;8.58;84.78;98447.41;5030460;28;20044;-83
2022/11/07 07:48:14;;;;;;;10.93;4.10;;;;;;;8.76;84.89;98464.91;5011679;28;20037;-83
2022/11/07 07:50:39;;;;;;;11.27;4.05;;;;;;;8.77;84.37;98461.22;5012348;28;20057;-83
2022/11/07 07:53:04;;;;;;;9.15;3.45;;;;;;;8.73;85.34;98452.94;5030165;28;20044;-82
2022/11/07 07:55:30;;;;;;;11.85;4.20;;;;;;;8.83;83.80;98452.25;5021614;28;20049;-83
2022/11/07 07:57:55;;;;;;;6.30;3.20;;;;;;;8.93;83.81;98458.50;5008197;28;20104;-83
2022/11/07 08:00:20;;;;;;;5.00;3.65;;;;;;;8.83;85.02;98452.25;5009030;28;24681;-83
2022/11/07 08:02:46;;;;;;;6.18;3.30;;;;;;;8.89;84.98;98451.25;4978595;28;20052;-83
2022/11/07 08:05:13;;;;;;;6.72;2.97;;;;;;;8.87;84.84;98427.56;5012116;28;20044;-83
2022/11/07 08:07:49;;;;;;;5.63;3.35;;;;;;;9.05;84.70;98453.06;5029560;28;20140;-83
2022/11/07 08:10:16;;;;;;;7.38;3.30;;;;;;;8.99;84.55;98444.22;5020422;28;20064;-82
2022/11/07 08:12:45;;;;;;;6.32;3.20;;;;;;;9.06;83.93;98446.69;5024653;28;20026;-83
2022/11/07 08:15:12;;;;;;;9.93;4.10;;;;;;;9.00;84.60;98445.81;5028619;28;20038;-83
2022/11/07 08:17:38;;;;;;;12.38;4.55;;;;;;;8.94;85.38;98435.34;5010107;28;20017;-83
2022/11/07 08:20:05;;;;;;;6.63;3.88;;;;;;;9.02;84.76;98440.25;5013438;28;20034;-83
2022/11/07 08:22:30;;;;;;;9.32;4.07;;;;;;;8.98;84.61;98426.63;5031036;28;20029;-83
2022/11/07 08:24:56;;;;;;;11.95;3.95;;;;;;;9.11;85.09;98454.72;5028763;28;20091;-83
2022/11/07 08:27:21;;;;;;;8.45;3.50;;;;;;;9.24;84.13;98456.22;5027575;28;20087;-83
2022/11/07 08:29:46;;;;;;;7.43;4.32;;;;;;;9.12;85.62;98443.03;4994590;28;20128;-83
2022/11/07 08:32:12;;;;;;;7.43;3.72;;;;;;;9.06;85.72;98442.16;5004148;28;20943;-83
2022/11/07 08:34:37;;;;;;;8.10;4.28;;;;;;;9.13;85.23;98439.31;5028451;28;20039;-83
2022/11/07 08:37:03;;;;;;;6.28;3.20;;;;;;;9.18;84.26;98447.34;5026031;28;20622;-82
2022/11/07 08:39:28;;;;;;;8.10;3.78;;;;;;;9.18;84.64;98436.72;5010520;28;20056;-83
2022/11/07 08:41:54;;;;;;;10.52;4.03;;;;;;;9.25;85.42;98447.97;5012390;28;20033;-83
2022/11/07 08:44:19;;;;;;;13.20;4.70;;;;;;;9.21;85.21;98443.41;5010145;28;20505;-83
2022/11/07 08:46:44;;;;;;;8.15;4.20;;;;;;;9.32;84.96;98447.78;5009704;28;20065;-83
2022/11/07 08:49:10;;;;;;;10.93;3.92;;;;;;;9.21;85.33;98444.22;4986278;28;20033;-83
2022/11/07 08:51:35;;;;;;;12.43;3.75;;;;;;;9.31;85.24;98452.28;4991797;28;20188;-83
2022/11/07 08:54:01;;;;;;;14.25;4.80;;;;;;;9.31;84.96;98451.50;5028582;28;20520;-83
2022/11/07 08:56:26;;;;;;;7.35;4.00;;;;;;;9.34;85.21;98451.00;5011948;28;20037;-82
2022/11/07 08:58:51;;;;;;;7.93;3.25;;;;;;;9.36;85.06;98456.88;5010165;28;20044;-83
2022/11/07 09:01:17;;;;;;;8.35;4.10;;;;;;;9.34;85.02;98456.31;4989930;28;20038;-84
2022/11/07 09:03:42;;;;;;;14.65;4.70;;;;;;;9.40;85.00;98452.66;5021908;28;20053;-83
2022/11/07 09:06:07;;;;;;;10.05;3.63;;;;;;;9.35;85.29;98437.41;5023614;28;20044;-83
2022/11/07 09:08:33;;;;;;;13.80;6.30;;;;;;;9.47;84.58;98446.09;5017275;28;20037;-83
2022/11/07 09:11:03;;;;;;;10.95;4.50;;;;;;;9.64;84.93;98461.97;5024161;28;20029;-83
2022/11/07 09:13:30;;;;;;;5.22;3.53;;;;;;;9.49;83.47;98430.66;5023022;28;20520;-83
2022/11/07 09:15:58;;;;;;;8.57;4.05;;;;;;;9.66;83.30;98444.66;5004077;28;20030;-82
2022/11/07 09:18:24;;;;;;;9.85;3.47;;;;;;;9.74;83.15;98446.88;5003620;28;20052;-82
2022/11/07 09:20:49;;;;;;;10.13;3.95;;;;;;;9.88;83.46;98460.59;5004227;28;20029;-83
2022/11/07 09:23:14;;;;;;;14.07;4.50;;;;;;;9.94;83.44;98466.78;5028176;28;20037;-82
2022/11/07 09:25:40;;;;;;;10.98;4.32;;;;;;;9.87;82.94;98456.34;5009629;28;20059;-83
2022/11/07 09:28:05;;;;;;;9.05;3.50;;;;;;;9.95;82.84;98466.53;5027712;28;20123;-83
2022/11/07 09:30:31;;;;;;;6.88;3.17;;;;;;;9.92;83.51;98458.22;5026389;28;20030;-83
2022/11/07 09:32:57;;;;;;;8.23;3.67;;;;;;;9.95;82.85;98463.06;4988309;28;20125;-83
2022/11/07 09:35:22;;;;;;;7.78;3.38;;;;;;;9.95;83.09;98471.88;5024426;28;20457;-82
2022/11/07 09:37:49;;;;;;;7.13;3.22;;;;;;;9.99;83.09;98477.47;5006411;28;20038;-83
2022/11/07 09:40:17;;;;;;;8.50;3.67;;;;;;;10.03;82.89;98471.38;5027587;28;20053;-83
2022/11/07 09:42:43;;;;;;;7.97;3.42;;;;;;;10.07;83.35;98472.50;5009925;28;20083;-83
2022/11/07 09:45:12;;;;;;;8.15;3.35;;;;;;;10.10;82.93;98465.84;5024887;28;20033;-83
2022/11/07 09:47:46;;;;;;;8.90;3.60;;;;;;;10.10;81.91;98456.00;4993987;28;20116;-83
2022/11/07 09:50:14;;;;;;;7.15;3.05;;;;;;;10.26;82.09;98475.63;5026974;28;20033;-83
2022/11/07 09:52:57;;;;;;;10.20;3.08;;;;;;;10.12;82.77;98456.56;5022729;28;20034;-83
2022/11/07 09:55:30;;;;;;;13.10;5.03;;;;;;;10.18;82.75;98468.88;5031244;28;20112;-83
2022/11/07 09:58:00;;;;;;;8.93;3.50;;;;;;;10.27;82.39;98472.69;5026058;28;20124;-83
2022/11/07 10:00:29;;;;;;;13.88;9.88;;;;;;;10.37;82.57;98477.31;5005741;28;20076;-83
2022/11/07 10:02:57;;;;;;;13.35;4.47;;;;;;;10.43;81.72;98484.28;5009139;28;20052;-83
2022/11/07 10:05:29;;;;;;;7.72;3.45;;;;;;;10.44;81.81;98481.34;5033635;28;20029;-82
2022/11/07 10:08:15;;;;;;;10.60;3.60;;;;;;;10.42;82.88;98472.78;5031069;28;20500;-83
2022/11/07 10:10:52;;;;;;;9.90;3.70;;;;;;;10.44;82.25;98476.00;5032868;28;20429;-82
2022/11/07 10:13:39;;;;;;;8.10;4.28;;;;;;;10.63;82.42;98484.41;5028310;28;20068;-82
2022/11/07 10:16:59;;;;;;;11.45;3.13;;;;;;;10.80;81.54;98473.56;5026115;28;20037;-83
2022/11/07 10:19:43;;;;;;;10.82;2.97;;;;;;;10.85;81.40;98476.28;4975002;28;20124;-83
2022/11/07 10:22:22;;;;;;;9.57;3.13;;;;;;;10.87;81.05;98490.16;5008733;28;20492;-83
2022/11/07 10:24:50;;;;;;;9.68;4.60;;;;;;;10.89;81.28;98480.84;5021971;28;20551;-82
2022/11/07 10:27:15;;;;;;;7.82;3.00;;;;;;;10.90;80.59;98479.75;5029948;28;20124;-83
2022/11/07 10:29:51;;;;;;;11.75;3.90;;;;;;;10.98;80.71;98489.16;5013050;28;20482;-83
2022/11/07 10:32:31;;;;;;;10.57;3.63;;;;;;;11.01;80.70;98492.09;5004145;28;20041;-83
2022/11/07 10:35:11;;;;;;;7.32;3.65;;;;;;;11.06;80.72;98483.31;5026497;28;20120;-82
2022/11/07 10:37:36;;;;;;;14.88;3.00;;;;;;;11.07;80.19;98466.25;5031588;28;20108;-82
2022/11/07 10:40:13;;;;;;;12.45;2.88;;;;;;;11.19;80.07;98480.97;5029326;28;20117;-82
2022/11/07 10:42:39;;;;;;;7.72;2.65;;;;;;;11.36;79.47;98493.34;5029227;28;20025;-82
2022/11/07 10:45:10;;;;;;;5.95;2.72;;;;;;;11.44;79.34;98482.13;5024640;28;20033;-83
2022/11/07 10:47:37;;;;;;;13.63;3.10;;;;;;;11.49;79.02;98474.91;5010544;28;20124;-83
2022/11/07 10:50:19;;;;;;;8.57;3.05;;;;;;;11.44;78.74;98464.25;5027529;28;20033;-82
2022/11/07 10:52:59;;;;;;;7.20;2.63;;;;;;;11.59;78.99;98493.69;5007447;28;21778;-83
2022/11/07 10:55:27;;;;;;;8.50;2.80;;;;;;;11.47;78.86;98486.94;5030142;28;20030;-83
2022/11/07 10:57:58;;;;;;;6.78;2.63;;;;;;;11.50;78.58;98494.44;5026234;28;20037;-83
2022/11/07 11:00:30;;;;;;;9.05;3.15;;;;;;;11.30;79.49;98482.63;5022932;28;20040;-83
2022/11/07 11:02:57;;;;;;;6.53;2.60;;;;;;;11.44;79.10;98495.50;5024627;28;20026;-83
2022/11/07 11:05:43;;;;;;;10.32;2.40;;;;;;;11.32;79.69;98491.19;5029532;28;20444;-82
2022/11/07 11:08:20;;;;;;;12.20;3.38;;;;;;;11.25;79.47;98477.25;5004546;28;20374;-83
2022/11/07 11:10:46;;;;;;;9.40;2.40;;;;;;;11.32;79.42;98490.38;5030759;28;20064;-83
2022/11/07 11:13:30;;;;;;;10.60;3.10;;;;;;;11.23;79.46;98487.41;5019707;28;20065;-83
2022/11/07 11:15:59;;;;;;;6.47;2.30;;;;;;;11.26;79.67;98508.25;5000042;28;20018;-82
2022/11/07 11:18:25;;;;;;;5.72;2.75;;;;;;;11.21;79.61;98491.38;5018953;28;20033;-82
2022/11/07 11:21:00;;;;;;;5.38;1.80;;;;;;;11.15;79.78;98485.22;4994410;28;20474;-83
2022/11/07 11:23:29;;;;;;;8.82;2.80;;;;;;;11.23;79.94;98489.25;5029332;28;20484;-82
2022/11/07 11:26:00;;;;;;;8.18;3.22;;;;;;;11.22;79.54;98493.81;5015028;28;20431;-83
2022/11/07 11:28:32;;;;;;;6.63;2.55;;;;;;;11.16;79.63;98481.47;5028774;28;20072;-83
2022/11/07 11:31:05;;;;;;;6.45;3.03;;;;;;;11.24;79.62;98478.34;5015650;28;20025;-83
2022/11/07 11:33:43;;;;;;;5.70;2.78;;;;;;;11.19;80.27;98480.16;5015150;28;20064;-83
2022/11/07 11:36:18;;;;;;;6.05;2.70;;;;;;;11.11;80.34;98478.00;5026407;28;20027;-83
2022/11/07 11:38:51;;;;;;;6.97;2.60;;;;;;;11.17;79.67;98492.97;5023281;28;20071;-83
2022/11/07 11:41:30;;;;;;;8.63;3.15;;;;;;;11.12;80.53;98491.09;5003673;28;20029;-83
2022/11/07 11:44:13;;;;;;;7.47;3.65;;;;;;;11.20;80.27;98489.81;5026485;28;20112;-82
2022/11/07 11:46:54;;;;;;;9.38;3.78;;;;;;;11.30;79.61;98479.94;5012262;28;20553;-83
2022/11/07 11:49:49;;;;;;;6.50;2.80;;;;;;;11.33;79.33;98476.75;5011608;28;20071;-82
2022/11/07 11:52:18;;;;;;;6.38;2.40;;;;;;;11.38;80.02;98480.53;5022771;28;20516;-82
2022/11/07 11:54:44;;;;;;;10.65;2.72;;;;;;;11.44;80.15;98488.28;5030298;28;20284;-83
2022/11/07 11:57:23;;;;;;;7.35;2.90;;;;;;;11.48;79.48;98480.53;5026326;28;20022;-82